createdAt,value
2017-11-09T00:00:05.121Z,0
2017-11-09T00:01:13.668Z,0
2017-11-09T00:02:22.202Z,0
2017-11-09T00:03:30.747Z,0
2017-11-09T00:04:39.724Z,0
2017-11-09T00:05:48.622Z,0
2017-11-09T00:06:57.851Z,0
2017-11-09T00:08:06.393Z,0
2017-11-09T00:09:15.949Z,0
2017-11-09T00:10:24.839Z,0
2017-11-09T00:11:33.371Z,0
2017-11-09T00:12:42.243Z,0
2017-11-09T00:13:51.132Z,0
2017-11-09T00:15:00.019Z,0
2017-11-09T00:16:08.558Z,0
2017-11-09T00:17:17.792Z,0
2017-11-09T00:18:26.322Z,0
2017-11-09T00:19:35.199Z,0
2017-11-09T00:20:44.075Z,0
2017-11-09T00:21:52.955Z,0
2017-11-09T00:23:01.495Z,0
2017-11-09T00:24:11.048Z,0
2017-11-09T00:25:20.259Z,0
2017-11-09T00:26:28.800Z,0
2017-11-09T00:27:37.345Z,0
2017-11-09T00:28:46.222Z,0
2017-11-09T00:29:55.098Z,0
2017-11-09T00:31:03.975Z,0
2017-11-09T00:32:12.852Z,0
2017-11-09T00:33:21.393Z,0
2017-11-09T00:34:30.268Z,0
2017-11-09T00:35:38.809Z,0
2017-11-09T00:36:47.351Z,0
2017-11-09T00:37:55.890Z,0
2017-11-09T00:39:04.772Z,0
2017-11-09T00:40:13.645Z,0
2017-11-09T00:41:22.860Z,0
2017-11-09T00:42:31.397Z,0
2017-11-09T00:43:40.273Z,0
2017-11-09T00:44:49.248Z,0
2017-11-09T00:45:57.802Z,0
2017-11-09T00:47:06.680Z,0
2017-11-09T00:48:15.899Z,0
2017-11-09T00:49:24.437Z,0
2017-11-09T00:50:33.316Z,0
2017-11-09T00:51:42.533Z,0
2017-11-09T00:52:51.417Z,0
2017-11-09T00:54:00.300Z,0
2017-11-09T00:55:08.842Z,0
2017-11-09T00:56:17.725Z,0
2017-11-09T00:57:26.965Z,0
2017-11-09T00:58:36.180Z,0
2017-11-09T00:59:45.064Z,0
2017-11-09T01:00:53.685Z,0
2017-11-09T01:02:02.732Z,0
2017-11-09T01:03:11.613Z,0
2017-11-09T01:04:20.260Z,0
2017-11-09T01:05:28.797Z,0
2017-11-09T01:06:37.671Z,0
2017-11-09T01:07:46.553Z,0
2017-11-09T01:08:55.111Z,0
2017-11-09T01:10:04.328Z,0
2017-11-09T01:11:12.866Z,0
2017-11-09T01:12:21.404Z,0
2017-11-09T01:13:30.008Z,0
2017-11-09T01:14:38.547Z,0
2017-11-09T01:15:47.765Z,0
2017-11-09T01:16:56.641Z,0
2017-11-09T01:18:05.860Z,0
2017-11-09T01:19:14.745Z,0
2017-11-09T01:20:23.623Z,0
2017-11-09T01:21:32.162Z,0
2017-11-09T01:22:41.379Z,0
2017-11-09T01:23:50.632Z,0
2017-11-09T01:25:00.625Z,0
2017-11-09T01:26:09.502Z,0
2017-11-09T01:27:18.064Z,0
2017-11-09T01:28:26.954Z,0
2017-11-09T01:29:35.495Z,0
2017-11-09T01:30:44.728Z,0
2017-11-09T01:31:53.945Z,0
2017-11-09T01:33:02.830Z,0
2017-11-09T01:34:11.364Z,0
2017-11-09T01:35:20.639Z,0
2017-11-09T01:36:29.183Z,0
2017-11-09T01:37:38.397Z,0
2017-11-09T01:38:47.953Z,0
2017-11-09T01:39:57.211Z,0
2017-11-09T01:41:06.078Z,0
2017-11-09T01:42:14.952Z,0
2017-11-09T01:43:23.497Z,0
2017-11-09T01:44:32.088Z,0
2017-11-09T01:45:40.652Z,0
2017-11-09T01:46:49.560Z,0
2017-11-09T01:47:58.103Z,0
2017-11-09T01:49:06.981Z,0
2017-11-09T01:50:15.517Z,0
2017-11-09T01:51:24.056Z,0
2017-11-09T01:52:32.940Z,0
2017-11-09T01:53:41.813Z,0
2017-11-09T01:54:50.685Z,0
2017-11-09T01:55:59.228Z,0
2017-11-09T01:57:07.768Z,0
2017-11-09T01:58:16.988Z,0
2017-11-09T01:59:25.575Z,0
2017-11-09T02:00:34.116Z,0
2017-11-09T02:01:43.009Z,0
2017-11-09T02:02:51.884Z,0
2017-11-09T02:04:01.098Z,0
2017-11-09T02:05:10.377Z,0
2017-11-09T02:06:18.918Z,0
2017-11-09T02:07:27.461Z,0
2017-11-09T02:08:36.341Z,0
2017-11-09T02:09:44.881Z,0
2017-11-09T02:10:54.428Z,0
2017-11-09T02:12:03.360Z,0
2017-11-09T02:13:11.902Z,0
2017-11-09T02:14:21.473Z,0
2017-11-09T02:15:30.356Z,0
2017-11-09T02:16:39.235Z,0
2017-11-09T02:17:48.449Z,0
2017-11-09T02:18:56.997Z,0
2017-11-09T02:20:05.539Z,0
2017-11-09T02:21:14.076Z,0
2017-11-09T02:22:23.348Z,0
2017-11-09T02:23:32.574Z,0
2017-11-09T02:24:41.454Z,0
2017-11-09T02:25:50.455Z,0
2017-11-09T02:26:58.994Z,0
2017-11-09T02:28:07.787Z,0
2017-11-09T02:29:16.676Z,0
2017-11-09T02:30:25.216Z,0
2017-11-09T02:31:34.451Z,0
2017-11-09T02:32:43.382Z,0
2017-11-09T02:33:52.003Z,0
2017-11-09T02:35:00.878Z,0
2017-11-09T02:36:09.422Z,0
2017-11-09T02:37:18.302Z,0
2017-11-09T02:38:27.178Z,0
2017-11-09T02:39:38.768Z,0
2017-11-09T02:40:47.648Z,0
2017-11-09T02:41:56.867Z,0
2017-11-09T02:43:05.775Z,0
2017-11-09T02:44:14.998Z,0
2017-11-09T02:45:23.607Z,0
2017-11-09T02:46:32.498Z,0
2017-11-09T02:47:41.369Z,0
2017-11-09T02:48:50.249Z,0
2017-11-09T02:49:59.131Z,0
2017-11-09T02:51:08.062Z,0
2017-11-09T02:52:16.624Z,0
2017-11-09T02:53:25.558Z,0
2017-11-09T02:54:34.449Z,0
2017-11-09T02:55:43.326Z,0
2017-11-09T02:56:52.255Z,0
2017-11-09T02:58:01.436Z,0
2017-11-09T02:59:10.309Z,0
2017-11-09T03:00:19.220Z,0
2017-11-09T03:01:28.436Z,0
2017-11-09T03:02:37.425Z,0
2017-11-09T03:03:46.992Z,0
2017-11-09T03:04:55.887Z,0
2017-11-09T03:06:05.145Z,0
2017-11-09T03:07:14.031Z,0
2017-11-09T03:08:22.917Z,0
2017-11-09T03:09:31.459Z,0
2017-11-09T03:10:40.033Z,0
2017-11-09T03:11:48.945Z,0
2017-11-09T03:12:58.161Z,0
2017-11-09T03:14:06.751Z,0
2017-11-09T03:15:15.629Z,0
2017-11-09T03:16:24.508Z,0
2017-11-09T03:17:33.386Z,0
2017-11-09T03:18:42.261Z,0
2017-11-09T03:19:50.803Z,0
2017-11-09T03:20:59.343Z,0
2017-11-09T03:22:08.226Z,0
2017-11-09T03:23:16.813Z,0
2017-11-09T03:24:25.364Z,0
2017-11-09T03:25:34.988Z,0
2017-11-09T03:26:43.902Z,0
2017-11-09T03:27:52.442Z,0
2017-11-09T03:29:01.320Z,0
2017-11-09T03:30:13.353Z,0
2017-11-09T03:31:22.942Z,0
2017-11-09T03:32:31.819Z,0
2017-11-09T03:33:41.038Z,0
2017-11-09T03:34:50.251Z,0
2017-11-09T03:35:59.466Z,0
2017-11-09T03:37:08.346Z,0
2017-11-09T03:38:17.236Z,0
2017-11-09T03:39:26.115Z,0
2017-11-09T03:40:34.656Z,0
2017-11-09T03:41:43.867Z,0
2017-11-09T03:42:52.460Z,0
2017-11-09T03:44:06.481Z,0
2017-11-09T03:45:15.364Z,0
2017-11-09T03:46:24.919Z,0
2017-11-09T03:47:33.461Z,0
2017-11-09T03:48:42.671Z,0
2017-11-09T03:49:51.891Z,0
2017-11-09T03:51:00.773Z,0
2017-11-09T03:52:09.307Z,0
2017-11-09T03:53:17.846Z,0
2017-11-09T03:54:26.384Z,0
2017-11-09T03:55:35.604Z,0
2017-11-09T03:56:44.484Z,0
2017-11-09T03:57:53.024Z,0
2017-11-09T03:59:01.904Z,0
2017-11-09T04:00:11.163Z,0
2017-11-09T04:01:20.038Z,0
2017-11-09T04:02:28.582Z,0
2017-11-09T04:03:37.828Z,0
2017-11-09T04:04:46.704Z,0
2017-11-09T04:05:55.601Z,0
2017-11-09T04:07:04.476Z,0
2017-11-09T04:08:13.357Z,0
2017-11-09T04:09:22.243Z,0
2017-11-09T04:10:30.783Z,0
2017-11-09T04:11:39.321Z,0
2017-11-09T04:12:48.199Z,0
2017-11-09T04:13:57.076Z,0
2017-11-09T04:15:05.949Z,0
2017-11-09T04:16:14.825Z,0
2017-11-09T04:17:23.364Z,0
2017-11-09T04:18:31.902Z,0
2017-11-09T04:19:40.779Z,0
2017-11-09T04:20:49.651Z,0
2017-11-09T04:21:58.536Z,0
2017-11-09T04:23:07.416Z,0
2017-11-09T04:24:16.989Z,0
2017-11-09T04:25:26.206Z,0
2017-11-09T04:26:34.750Z,0
2017-11-09T04:27:43.627Z,0
2017-11-09T04:28:52.549Z,0
2017-11-09T04:30:01.091Z,0
2017-11-09T04:31:09.982Z,0
2017-11-09T04:32:18.523Z,0
2017-11-09T04:33:27.740Z,0
2017-11-09T04:34:36.954Z,0
2017-11-09T04:35:45.838Z,0
2017-11-09T04:36:54.721Z,0
2017-11-09T04:38:03.258Z,0
2017-11-09T04:39:11.796Z,0
2017-11-09T04:40:21.019Z,0
2017-11-09T04:41:30.230Z,0
2017-11-09T04:42:39.108Z,0
2017-11-09T04:43:47.982Z,0
2017-11-09T04:44:57.192Z,0
2017-11-09T04:46:06.068Z,0
2017-11-09T04:47:14.942Z,0
2017-11-09T04:48:23.826Z,0
2017-11-09T04:49:32.362Z,0
2017-11-09T04:50:40.900Z,0
2017-11-09T04:51:49.450Z,0
2017-11-09T04:52:57.979Z,0
2017-11-09T04:54:06.856Z,0
2017-11-09T04:55:15.733Z,0
2017-11-09T04:56:24.614Z,0
2017-11-09T04:57:33.828Z,0
2017-11-09T04:58:42.369Z,0
2017-11-09T04:59:51.253Z,0
2017-11-09T05:01:00.820Z,0
2017-11-09T05:02:10.037Z,0
2017-11-09T05:03:18.924Z,0
2017-11-09T05:04:28.465Z,0
2017-11-09T05:05:37.002Z,0
2017-11-09T05:06:45.545Z,0
2017-11-09T05:07:54.423Z,0
2017-11-09T05:09:02.961Z,0
2017-11-09T05:10:11.839Z,0
2017-11-09T05:11:20.380Z,0
2017-11-09T05:12:29.257Z,0
2017-11-09T05:13:37.796Z,0
2017-11-09T05:14:46.339Z,0
2017-11-09T05:15:55.568Z,0
2017-11-09T05:17:04.108Z,0
2017-11-09T05:18:12.993Z,0
2017-11-09T05:19:21.872Z,0
2017-11-09T05:20:30.985Z,0
2017-11-09T05:21:39.596Z,0
2017-11-09T05:22:48.137Z,0
2017-11-09T05:23:57.013Z,0
2017-11-09T05:25:05.553Z,0
2017-11-09T05:26:14.091Z,0
2017-11-09T05:27:22.975Z,0
2017-11-09T05:28:31.854Z,0
2017-11-09T05:29:40.730Z,0
2017-11-09T05:30:49.607Z,0
2017-11-09T05:31:58.870Z,0
2017-11-09T05:33:07.749Z,0
2017-11-09T05:34:16.641Z,0
2017-11-09T05:35:25.162Z,0
2017-11-09T05:36:34.045Z,0
2017-11-09T05:37:42.926Z,0
2017-11-09T05:38:51.478Z,0
2017-11-09T05:40:01.373Z,0
2017-11-09T05:41:10.250Z,0
2017-11-09T05:42:19.460Z,0
2017-11-09T05:43:27.999Z,0
2017-11-09T05:44:36.891Z,0
2017-11-09T05:45:45.765Z,0
2017-11-09T05:46:54.305Z,0
2017-11-09T05:48:03.185Z,0
2017-11-09T05:49:12.111Z,0
2017-11-09T05:50:20.653Z,0
2017-11-09T05:51:29.202Z,0
2017-11-09T05:52:38.081Z,0
2017-11-09T05:53:47.297Z,0
2017-11-09T05:54:56.515Z,0
2017-11-09T05:56:05.390Z,0
2017-11-09T05:57:14.269Z,0
2017-11-09T05:58:23.156Z,0
2017-11-09T05:59:32.712Z,0
2017-11-09T06:00:41.254Z,0
2017-11-09T06:01:50.132Z,0
2017-11-09T06:02:58.680Z,0
2017-11-09T06:04:07.558Z,0
2017-11-09T06:05:16.431Z,0
2017-11-09T06:06:25.306Z,0
2017-11-09T06:07:34.518Z,0
2017-11-09T06:08:43.392Z,0
2017-11-09T06:09:52.275Z,0
2017-11-09T06:11:01.487Z,0
2017-11-09T06:12:10.025Z,0
2017-11-09T06:13:19.237Z,0
2017-11-09T06:14:28.449Z,0
2017-11-09T06:15:36.988Z,0
2017-11-09T06:16:45.527Z,0
2017-11-09T06:17:54.066Z,0
2017-11-09T06:19:03.298Z,0
2017-11-09T06:20:11.838Z,0
2017-11-09T06:21:21.059Z,0
2017-11-09T06:22:29.597Z,0
2017-11-09T06:23:38.473Z,0
2017-11-09T06:24:47.010Z,0
2017-11-09T06:25:55.895Z,0
2017-11-09T06:27:04.449Z,0
2017-11-09T06:28:14.018Z,0
2017-11-09T06:29:22.559Z,0
2017-11-09T06:30:31.096Z,0
2017-11-09T06:31:40.315Z,0
2017-11-09T06:32:49.528Z,0
2017-11-09T06:33:58.082Z,0
2017-11-09T06:35:06.614Z,0
2017-11-09T06:36:16.164Z,0
2017-11-09T06:37:25.381Z,0
2017-11-09T06:38:34.257Z,0
2017-11-09T06:39:42.797Z,0
2017-11-09T06:40:51.721Z,0
2017-11-09T06:42:00.940Z,0
2017-11-09T06:43:10.155Z,0
2017-11-09T06:44:18.694Z,0
2017-11-09T06:45:27.914Z,0
2017-11-09T06:46:36.790Z,0
2017-11-09T06:47:46.007Z,0
2017-11-09T06:48:54.553Z,0
2017-11-09T06:50:03.426Z,0
2017-11-09T06:51:11.966Z,0
2017-11-09T06:52:21.210Z,0
2017-11-09T06:53:29.751Z,0
2017-11-09T06:54:38.634Z,0
2017-11-09T06:55:47.268Z,0
2017-11-09T06:56:56.503Z,0
2017-11-09T06:58:05.380Z,0
2017-11-09T06:59:14.259Z,0
2017-11-09T07:00:22.831Z,0
2017-11-09T07:01:31.704Z,0
2017-11-09T07:02:40.586Z,0
2017-11-09T07:03:49.172Z,0
2017-11-09T07:04:59.058Z,0
2017-11-09T07:06:07.950Z,0
2017-11-09T07:07:16.493Z,0
2017-11-09T07:08:25.370Z,5
2017-11-09T07:09:34.251Z,5
2017-11-09T07:10:42.791Z,5
2017-11-09T07:11:51.667Z,5
2017-11-09T07:13:00.208Z,5
2017-11-09T07:14:08.749Z,5
2017-11-09T07:15:17.970Z,5
2017-11-09T07:16:26.849Z,5
2017-11-09T07:17:35.729Z,5
2017-11-09T07:18:44.266Z,5
2017-11-09T07:19:53.145Z,5
2017-11-09T07:21:02.036Z,5
2017-11-09T07:22:10.913Z,5
2017-11-09T07:23:19.457Z,5
2017-11-09T07:24:29.016Z,5
2017-11-09T07:25:37.553Z,10
2017-11-09T07:26:46.093Z,10
2017-11-09T07:27:54.973Z,10
2017-11-09T07:29:04.531Z,10
2017-11-09T07:30:13.759Z,10
2017-11-09T07:31:22.985Z,10
2017-11-09T07:32:32.194Z,15
2017-11-09T07:33:41.073Z,15
2017-11-09T07:34:49.947Z,15
2017-11-09T07:35:58.823Z,15
2017-11-09T07:37:07.700Z,15
2017-11-09T07:38:16.284Z,15
2017-11-09T07:39:24.824Z,15
2017-11-09T07:40:34.041Z,15
2017-11-09T07:41:42.578Z,15
2017-11-09T07:42:51.126Z,15
2017-11-09T07:44:00.010Z,15
2017-11-09T07:45:09.243Z,20
2017-11-09T07:46:18.121Z,20
2017-11-09T07:47:26.670Z,20
2017-11-09T07:48:35.886Z,20
2017-11-09T07:49:45.463Z,20
2017-11-09T07:50:54.342Z,20
2017-11-09T07:52:03.556Z,20
2017-11-09T07:53:12.436Z,20
2017-11-09T07:54:21.313Z,25
2017-11-09T07:55:30.190Z,20
2017-11-09T07:56:39.416Z,20
2017-11-09T07:57:47.952Z,20
2017-11-09T07:58:56.826Z,25
2017-11-09T08:00:05.950Z,25
2017-11-09T08:01:14.886Z,25
2017-11-09T08:02:23.769Z,25
2017-11-09T08:03:32.998Z,20
2017-11-09T08:04:41.543Z,25
2017-11-09T08:05:50.440Z,25
2017-11-09T08:07:00.323Z,20
2017-11-09T08:08:10.534Z,15
2017-11-09T08:09:19.514Z,15
2017-11-09T08:10:28.588Z,10
2017-11-09T08:11:37.353Z,15
2017-11-09T08:12:46.425Z,15
2017-11-09T08:13:55.466Z,20
2017-11-09T08:15:04.512Z,20
2017-11-09T08:16:28.098Z,20
2017-11-09T08:17:47.869Z,15
2017-11-09T08:18:57.306Z,20
2017-11-09T08:20:06.391Z,20
2017-11-09T08:21:15.057Z,20
2017-11-09T08:22:24.439Z,25
2017-11-09T08:23:33.461Z,25
2017-11-09T08:24:44.674Z,25
2017-11-09T08:25:54.392Z,30
2017-11-09T08:27:04.628Z,30
2017-11-09T08:28:13.944Z,35
2017-11-09T08:29:24.380Z,35
2017-11-09T08:30:33.365Z,35
2017-11-09T08:31:42.160Z,35
2017-11-09T08:32:51.255Z,30
2017-11-09T08:33:59.868Z,35
2017-11-09T08:35:09.032Z,30
